Etusivu
METAR-TAF:

METAR-TAF

Lentoasemat :

Gamèti, Luoteisterritoriot, Kanada

Leveyspiiri: 64-06-58N, Pituuspiiri: 117-18-35W, korkeus merenpinnasta: 221 m

Tämänhetkinen sää

Tämä raportti tehtiin 12 tuntia ja 59 minuuttia sitten, kello 01.00 UTC
Tuuli 4 kn etelästä
Lämpötila -18°C
Kosteus 77%
Ilmanpaine 999 hPa
Näkyvyys: 24.1 km
Hajonneita pilviä 14000 ft:n korkeudessa

METAR: CYRA 200100Z 18004KT 15SM BKN140 M18/M21 A2949 RMK AC5 S0 AFT 15UTC / 40 / SNW CVR/MUCH LOOSE LAST STFD OBS/NEXT 201500 UTC SLP016

Aika: 06:59 (13:59 UTC)

Sääennuste

Tämä raportti tehtiin 19 tuntia ja 21 minuuttia sitten, kello 18.38 UTC
Ennuste voimassa 19. päivästä klo 19 UTC - 20. päivään klo 01 UTC
Tuuli 5 kn etelästä
Näkyvyys: 10 km
Hajonneita pilviä 14000 ft:n korkeudessa

TAF: CYRA 191838Z 1919/2001 18005KT P6SM BKN140 RMK NXT FCST WILL BE ISSUED AT 201645Z

Säähavainnot ja -ennusteet yli 4000 lentoasemalta (METAR- ja TAF-raportit).

Käytössä olevat sääasemat on merkitty karttaan keltaisilla ja punaisilla pisteillä.

Aseta hiiri pisteen päälle nähdäksesi sääaseman nimen.

Klikkaa sitten nähdäksesi säähavainnot ja -ennusteet.

Kartan vaihtaminen: klikkaa mustalla rastilla varustettuja vihreitä pisteitä, niin voit zoomata sisään; viivalla varustettua vihreää pistettä, niin voit zoomata ulos tai vihreitä nuolia, niin pääset viereisille kartoille.


METAR-TAF: